sensor_id;sensor_type;location;lat;lon;timestamp;pressure;altitude;pressure_sealevel;temperature;humidity
57600;BME280;43426;43.594;24.334;2023-07-13T00:00:17;100987.91;;;22.56;99.95
57600;BME280;43426;43.594;24.334;2023-07-13T00:02:48;100984.22;;;22.51;100.00
57600;BME280;43426;43.594;24.334;2023-07-13T00:05:14;100968.94;;;22.43;100.00
57600;BME280;43426;43.594;24.334;2023-07-13T00:07:42;100991.94;;;22.66;99.71
57600;BME280;43426;43.594;24.334;2023-07-13T00:10:11;100983.50;;;22.55;99.45
57600;BME280;43426;43.594;24.334;2023-07-13T00:12:38;100979.56;;;22.51;98.90
57600;BME280;43426;43.594;24.334;2023-07-13T00:15:11;100977.56;;;22.47;99.32
57600;BME280;43426;43.594;24.334;2023-07-13T00:17:37;100968.38;;;22.41;99.98
57600;BME280;43426;43.594;24.334;2023-07-13T00:20:05;100981.53;;;22.39;100.00
57600;BME280;43426;43.594;24.334;2023-07-13T00:22:31;100949.13;;;22.29;100.00
57600;BME280;43426;43.594;24.334;2023-07-13T00:24:58;100959.19;;;22.35;99.65
57600;BME280;43426;43.594;24.334;2023-07-13T00:27:25;100969.78;;;22.32;100.00
57600;BME280;43426;43.594;24.334;2023-07-13T00:29:52;100943.06;;;22.15;100.00
57600;BME280;43426;43.594;24.334;2023-07-13T00:32:18;100938.06;;;22.12;100.00
57600;BME280;43426;43.594;24.334;2023-07-13T00:34:46;100964.22;;;22.26;100.00
57600;BME280;43426;43.594;24.334;2023-07-13T00:37:14;100949.38;;;22.27;100.00
57600;BME280;43426;43.594;24.334;2023-07-13T00:39:42;100938.03;;;22.24;100.00
57600;BME280;43426;43.594;24.334;2023-07-13T00:42:07;100935.06;;;22.14;100.00
57600;BME280;43426;43.594;24.334;2023-07-13T00:44:36;100938.06;;;22.12;100.00
57600;BME280;43426;43.594;24.334;2023-07-13T00:47:02;100951.44;;;22.20;100.00
57600;BME280;43426;43.594;24.334;2023-07-13T00:49:30;100935.94;;;22.14;100.00
57600;BME280;43426;43.594;24.334;2023-07-13T00:52:09;100943.94;;;22.16;100.00
57600;BME280;43426;43.594;24.334;2023-07-13T00:54:42;100948.50;;;22.10;100.00
57600;BME280;43426;43.594;24.334;2023-07-13T00:57:15;100914.00;;;21.90;100.00
57600;BME280;43426;43.594;24.334;2023-07-13T00:59:49;100922.25;;;21.90;100.00
57600;BME280;43426;43.594;24.334;2023-07-13T01:02:16;100936.41;;;22.11;100.00
57600;BME280;43426;43.594;24.334;2023-07-13T01:04:44;100937.34;;;22.17;100.00
57600;BME280;43426;43.594;24.334;2023-07-13T01:07:10;100951.09;;;22.17;100.00
57600;BME280;43426;43.594;24.334;2023-07-13T01:09:37;100932.38;;;22.02;100.00
57600;BME280;43426;43.594;24.334;2023-07-13T01:12:05;100947.88;;;22.08;100.00
57600;BME280;43426;43.594;24.334;2023-07-13T01:14:30;100962.44;;;22.20;100.00
57600;BME280;43426;43.594;24.334;2023-07-13T01:16:58;100953.03;;;22.04;100.00
57600;BME280;43426;43.594;24.334;2023-07-13T01:19:45;100941.00;;;21.82;100.00
57600;BME280;43426;43.594;24.334;2023-07-13T01:22:19;100937.06;;;21.77;100.00
57600;BME280;43426;43.594;24.334;2023-07-13T01:24:54;100956.28;;;21.89;100.00
57600;BME280;43426;43.594;24.334;2023-07-13T01:27:28;100956.03;;;21.91;100.00
57600;BME280;43426;43.594;24.334;2023-07-13T01:29:58;100931.69;;;21.94;100.00
57600;BME280;43426;43.594;24.334;2023-07-13T01:32:30;100961.09;;;21.82;100.00
57600;BME280;43426;43.594;24.334;2023-07-13T01:34:58;100945.09;;;21.67;100.00
57600;BME280;43426;43.594;24.334;2023-07-13T01:37:24;100959.31;;;21.64;100.00
57600;BME280;43426;43.594;24.334;2023-07-13T01:39:58;100935.66;;;21.63;100.00
57600;BME280;43426;43.594;24.334;2023-07-13T01:42:26;100964.53;;;21.77;100.00
57600;BME280;43426;43.594;24.334;2023-07-13T01:44:56;100952.47;;;21.67;100.00
57600;BME280;43426;43.594;24.334;2023-07-13T01:47:24;100948.31;;;21.64;100.00
57600;BME280;43426;43.594;24.334;2023-07-13T01:49:51;100932.31;;;21.61;100.00
57600;BME280;43426;43.594;24.334;2023-07-13T01:52:19;100958.22;;;21.65;100.00
57600;BME280;43426;43.594;24.334;2023-07-13T01:54:46;100958.34;;;21.58;100.00
57600;BME280;43426;43.594;24.334;2023-07-13T01:57:12;100965.84;;;21.51;100.00
57600;BME280;43426;43.594;24.334;2023-07-13T01:59:37;100971.22;;;21.46;100.00
57600;BME280;43426;43.594;24.334;2023-07-13T02:02:06;100957.94;;;21.43;100.00
57600;BME280;43426;43.594;24.334;2023-07-13T02:04:40;100978.03;;;21.55;100.00
57600;BME280;43426;43.594;24.334;2023-07-13T02:07:09;100958.81;;;21.43;100.00
57600;BME280;43426;43.594;24.334;2023-07-13T02:09:36;100957.00;;;21.49;100.00
57600;BME280;43426;43.594;24.334;2023-07-13T02:12:02;100965.25;;;21.49;100.00
57600;BME280;43426;43.594;24.334;2023-07-13T02:14:28;100947.09;;;21.36;100.00
57600;BME280;43426;43.594;24.334;2023-07-13T02:16:56;100971.59;;;21.62;100.00
57600;BME280;43426;43.594;24.334;2023-07-13T02:19:30;100962.06;;;21.52;100.00
57600;BME280;43426;43.594;24.334;2023-07-13T02:22:01;100944.81;;;21.33;100.00
57600;BME280;43426;43.594;24.334;2023-07-13T02:24:29;100978.25;;;21.42;100.00
57600;BME280;43426;43.594;24.334;2023-07-13T02:27:00;100971.44;;;21.44;100.00
57600;BME280;43426;43.594;24.334;2023-07-13T02:29:27;100974.31;;;21.38;100.00
57600;BME280;43426;43.594;24.334;2023-07-13T02:31:55;100958.06;;;21.24;100.00
57600;BME280;43426;43.594;24.334;2023-07-13T02:34:33;100981.34;;;21.34;100.00
57600;BME280;43426;43.594;24.334;2023-07-13T02:37:02;100975.59;;;21.23;100.00
57600;BME280;43426;43.594;24.334;2023-07-13T02:39:33;100987.78;;;21.27;100.00
57600;BME280;43426;43.594;24.334;2023-07-13T02:42:04;100971.31;;;21.16;100.00
57600;BME280;43426;43.594;24.334;2023-07-13T02:44:32;100977.75;;;21.21;100.00
57600;BME280;43426;43.594;24.334;2023-07-13T02:47:03;100965.81;;;21.16;100.00
57600;BME280;43426;43.594;24.334;2023-07-13T02:49:30;100988.97;;;21.20;100.00
57600;BME280;43426;43.594;24.334;2023-07-13T02:51:58;100982.50;;;21.14;100.00
57600;BME280;43426;43.594;24.334;2023-07-13T02:54:30;100938.22;;;20.87;100.00
57600;BME280;43426;43.594;24.334;2023-07-13T02:56:59;100972.81;;;21.00;100.00
57600;BME280;43426;43.594;24.334;2023-07-13T02:59:27;100984.28;;;21.08;100.00
57600;BME280;43426;43.594;24.334;2023-07-13T03:01:58;100994.66;;;21.06;100.00
57600;BME280;43426;43.594;24.334;2023-07-13T03:04:24;100986.91;;;21.03;100.00
57600;BME280;43426;43.594;24.334;2023-07-13T03:06:55;100996.69;;;21.11;100.00
57600;BME280;43426;43.594;24.334;2023-07-13T03:09:23;101001.94;;;21.13;100.00
57600;BME280;43426;43.594;24.334;2023-07-13T03:11:49;100997.03;;;21.03;100.00
57600;BME280;43426;43.594;24.334;2023-07-13T03:14:14;100999.44;;;20.99;100.00
57600;BME280;43426;43.594;24.334;2023-07-13T03:16:44;100980.66;;;20.84;100.00
57600;BME280;43426;43.594;24.334;2023-07-13T03:19:10;100979.91;;;20.77;100.00
57600;BME280;43426;43.594;24.334;2023-07-13T03:21:35;100987.16;;;21.02;100.00
57600;BME280;43426;43.594;24.334;2023-07-13T03:24:03;100975.19;;;20.96;100.00
57600;BME280;43426;43.594;24.334;2023-07-13T03:26:28;100983.56;;;21.01;100.00
57600;BME280;43426;43.594;24.334;2023-07-13T03:28:54;101009.94;;;21.14;100.00
57600;BME280;43426;43.594;24.334;2023-07-13T03:31:22;100983.31;;;21.03;100.00
57600;BME280;43426;43.594;24.334;2023-07-13T03:33:49;101005.16;;;20.98;100.00
57600;BME280;43426;43.594;24.334;2023-07-13T03:36:19;100991.19;;;20.99;100.00
57600;BME280;43426;43.594;24.334;2023-07-13T03:38:56;100998.75;;;21.16;100.00
57600;BME280;43426;43.594;24.334;2023-07-13T03:41:27;101015.38;;;21.33;100.00
57600;BME280;43426;43.594;24.334;2023-07-13T03:43:53;100980.94;;;21.18;100.00
57600;BME280;43426;43.594;24.334;2023-07-13T03:46:20;101010.59;;;21.40;100.00
57600;BME280;43426;43.594;24.334;2023-07-13T03:48:51;100998.16;;;21.37;100.00
57600;BME280;43426;43.594;24.334;2023-07-13T03:51:17;100986.72;;;21.40;100.00
57600;BME280;43426;43.594;24.334;2023-07-13T03:53:44;100997.03;;;21.57;100.00
57600;BME280;43426;43.594;24.334;2023-07-13T03:56:11;101001.56;;;21.75;100.00
57600;BME280;43426;43.594;24.334;2023-07-13T03:58:41;101008.13;;;21.86;100.00
57600;BME280;43426;43.594;24.334;2023-07-13T04:01:11;100983.53;;;21.79;100.00
57600;BME280;43426;43.594;24.334;2023-07-13T04:03:37;101006.09;;;21.93;100.00
57600;BME280;43426;43.594;24.334;2023-07-13T04:06:07;100986.63;;;21.94;100.00
57600;BME280;43426;43.594;24.334;2023-07-13T04:08:34;100969.91;;;21.96;100.00
57600;BME280;43426;43.594;24.334;2023-07-13T04:11:02;100996.72;;;22.18;100.00
57600;BME280;43426;43.594;24.334;2023-07-13T04:13:28;101009.50;;;22.36;100.00
57600;BME280;43426;43.594;24.334;2023-07-13T04:15:57;101006.72;;;22.48;100.00
57600;BME280;43426;43.594;24.334;2023-07-13T04:18:24;100996.41;;;22.55;100.00
57600;BME280;43426;43.594;24.334;2023-07-13T04:20:50;101014.84;;;22.83;100.00
57600;BME280;43426;43.594;24.334;2023-07-13T04:23:19;100981.50;;;22.96;100.00
57600;BME280;43426;43.594;24.334;2023-07-13T04:25:46;101000.16;;;23.40;100.00
57600;BME280;43426;43.594;24.334;2023-07-13T04:28:12;100984.69;;;23.56;99.08
57600;BME280;43426;43.594;24.334;2023-07-13T04:30:37;101012.91;;;23.97;97.37
57600;BME280;43426;43.594;24.334;2023-07-13T04:33:03;101011.06;;;24.25;96.50
57600;BME280;43426;43.594;24.334;2023-07-13T04:35:29;101008.16;;;24.59;94.35
57600;BME280;43426;43.594;24.334;2023-07-13T04:37:58;101004.34;;;24.88;91.98
57600;BME280;43426;43.594;24.334;2023-07-13T04:40:25;100999.72;;;25.26;89.53
57600;BME280;43426;43.594;24.334;2023-07-13T04:42:54;101024.03;;;25.56;88.89
57600;BME280;43426;43.594;24.334;2023-07-13T04:45:27;101012.84;;;25.78;86.80
57600;BME280;43426;43.594;24.334;2023-07-13T04:47:55;101013.88;;;26.10;84.75
57600;BME280;43426;43.594;24.334;2023-07-13T04:50:23;101011.19;;;26.30;83.98
57600;BME280;43426;43.594;24.334;2023-07-13T04:52:53;101008.00;;;26.59;82.07
57600;BME280;43426;43.594;24.334;2023-07-13T04:55:19;101002.56;;;26.85;79.86
57600;BME280;43426;43.594;24.334;2023-07-13T04:57:50;101014.19;;;27.08;78.15
57600;BME280;43426;43.594;24.334;2023-07-13T05:00:18;101010.88;;;27.00;78.74
57600;BME280;43426;43.594;24.334;2023-07-13T05:02:47;101003.09;;;27.02;79.53
57600;BME280;43426;43.594;24.334;2023-07-13T05:05:18;100999.50;;;27.12;78.07
57600;BME280;43426;43.594;24.334;2023-07-13T05:07:43;100989.28;;;27.08;76.75
57600;BME280;43426;43.594;24.334;2023-07-13T05:10:09;101016.47;;;27.42;76.24
57600;BME280;43426;43.594;24.334;2023-07-13T05:12:34;101020.31;;;27.56;73.79
57600;BME280;43426;43.594;24.334;2023-07-13T05:15:06;101002.00;;;27.70;71.34
57600;BME280;43426;43.594;24.334;2023-07-13T05:17:36;101006.97;;;27.84;68.03
57600;BME280;43426;43.594;24.334;2023-07-13T05:20:08;100996.19;;;27.72;69.83
57600;BME280;43426;43.594;24.334;2023-07-13T05:22:36;101016.66;;;27.86;65.20
57600;BME280;43426;43.594;24.334;2023-07-13T05:25:07;101018.84;;;28.10;65.99
57600;BME280;43426;43.594;24.334;2023-07-13T05:27:34;101029.66;;;28.12;66.52
57600;BME280;43426;43.594;24.334;2023-07-13T05:30:00;101028.50;;;28.28;66.02
57600;BME280;43426;43.594;24.334;2023-07-13T05:32:27;101010.16;;;28.32;63.70
57600;BME280;43426;43.594;24.334;2023-07-13T05:34:52;101012.91;;;28.43;63.65
57600;BME280;43426;43.594;24.334;2023-07-13T05:37:20;101020.34;;;28.52;64.38
57600;BME280;43426;43.594;24.334;2023-07-13T05:39:46;101022.03;;;28.48;64.22
57600;BME280;43426;43.594;24.334;2023-07-13T05:42:11;101013.94;;;28.57;64.32
57600;BME280;43426;43.594;24.334;2023-07-13T05:44:39;101015.81;;;28.72;62.80
57600;BME280;43426;43.594;24.334;2023-07-13T05:47:07;101009.19;;;28.68;63.08
57600;BME280;43426;43.594;24.334;2023-07-13T05:49:33;101012.38;;;28.91;62.23
57600;BME280;43426;43.594;24.334;2023-07-13T05:52:00;101017.56;;;29.02;61.39
57600;BME280;43426;43.594;24.334;2023-07-13T05:54:29;101022.19;;;29.17;61.37
57600;BME280;43426;43.594;24.334;2023-07-13T05:56:59;101046.78;;;29.69;61.34
57600;BME280;43426;43.594;24.334;2023-07-13T05:59:25;101018.13;;;29.68;59.68
57600;BME280;43426;43.594;24.334;2023-07-13T06:01:51;101032.16;;;29.87;59.20
57600;BME280;43426;43.594;24.334;2023-07-13T06:04:17;101040.97;;;29.95;58.78
57600;BME280;43426;43.594;24.334;2023-07-13T06:06:43;101027.84;;;30.00;58.64
57600;BME280;43426;43.594;24.334;2023-07-13T06:09:11;101055.22;;;30.17;59.02
57600;BME280;43426;43.594;24.334;2023-07-13T06:11:42;101032.00;;;30.27;57.34
57600;BME280;43426;43.594;24.334;2023-07-13T06:14:10;101053.09;;;30.58;56.91
57600;BME280;43426;43.594;24.334;2023-07-13T06:16:39;101031.84;;;30.81;53.29
57600;BME280;43426;43.594;24.334;2023-07-13T06:19:04;101032.22;;;30.93;55.65
57600;BME280;43426;43.594;24.334;2023-07-13T06:21:32;101040.75;;;31.21;53.36
57600;BME280;43426;43.594;24.334;2023-07-13T06:24:02;101055.00;;;31.52;53.06
57600;BME280;43426;43.594;24.334;2023-07-13T06:26:33;101050.09;;;31.63;53.46
57600;BME280;43426;43.594;24.334;2023-07-13T06:28:58;101037.94;;;31.73;52.57
57600;BME280;43426;43.594;24.334;2023-07-13T06:31:26;101030.31;;;31.92;52.92
57600;BME280;43426;43.594;24.334;2023-07-13T06:33:54;101047.09;;;32.20;51.82
57600;BME280;43426;43.594;24.334;2023-07-13T06:36:20;101041.31;;;32.31;51.94
57600;BME280;43426;43.594;24.334;2023-07-13T06:38:48;101038.69;;;32.34;50.33
57600;BME280;43426;43.594;24.334;2023-07-13T06:41:19;101052.47;;;32.45;49.20
57600;BME280;43426;43.594;24.334;2023-07-13T06:43:45;101037.47;;;32.40;48.79
57600;BME280;43426;43.594;24.334;2023-07-13T06:46:10;101036.84;;;32.43;49.37
57600;BME280;43426;43.594;24.334;2023-07-13T06:48:44;101006.53;;;32.37;50.49
57600;BME280;43426;43.594;24.334;2023-07-13T06:51:09;101019.94;;;32.76;49.34
57600;BME280;43426;43.594;24.334;2023-07-13T06:53:35;101028.66;;;32.98;48.60
57600;BME280;43426;43.594;24.334;2023-07-13T06:56:00;101026.47;;;33.31;47.77
57600;BME280;43426;43.594;24.334;2023-07-13T06:58:33;101001.81;;;33.33;47.31
57600;BME280;43426;43.594;24.334;2023-07-13T07:01:07;101005.09;;;33.58;48.20
57600;BME280;43426;43.594;24.334;2023-07-13T07:03:33;101007.13;;;33.75;46.42
57600;BME280;43426;43.594;24.334;2023-07-13T07:08:34;101008.06;;;33.93;46.20
57600;BME280;43426;43.594;24.334;2023-07-13T07:11:00;101008.28;;;34.05;46.73
57600;BME280;43426;43.594;24.334;2023-07-13T07:13:30;101010.31;;;34.31;45.97
57600;BME280;43426;43.594;24.334;2023-07-13T07:15:58;101008.56;;;34.44;45.46
57600;BME280;43426;43.594;24.334;2023-07-13T07:18:28;101018.97;;;34.61;45.12
57600;BME280;43426;43.594;24.334;2023-07-13T07:20:56;101010.78;;;34.91;44.13
57600;BME280;43426;43.594;24.334;2023-07-13T07:23:26;100994.41;;;35.10;42.25
57600;BME280;43426;43.594;24.334;2023-07-13T07:25:58;101008.94;;;35.21;43.53
57600;BME280;43426;43.594;24.334;2023-07-13T07:28:24;101009.75;;;35.39;41.76
57600;BME280;43426;43.594;24.334;2023-07-13T07:30:55;100995.69;;;35.48;41.00
57600;BME280;43426;43.594;24.334;2023-07-13T07:33:27;101007.66;;;35.66;40.56
57600;BME280;43426;43.594;24.334;2023-07-13T07:35:57;100992.50;;;35.58;41.85
57600;BME280;43426;43.594;24.334;2023-07-13T07:38:25;101012.41;;;35.92;40.96
57600;BME280;43426;43.594;24.334;2023-07-13T07:40:51;101010.00;;;36.03;40.43
57600;BME280;43426;43.594;24.334;2023-07-13T07:43:19;101008.59;;;36.18;40.15
57600;BME280;43426;43.594;24.334;2023-07-13T07:45:47;100995.69;;;36.25;40.21
57600;BME280;43426;43.594;24.334;2023-07-13T07:48:12;100997.16;;;36.53;41.54
57600;BME280;43426;43.594;24.334;2023-07-13T07:50:40;100999.47;;;36.80;39.58
57600;BME280;43426;43.594;24.334;2023-07-13T07:53:08;100990.50;;;37.00;40.73
57600;BME280;43426;43.594;24.334;2023-07-13T07:55:35;100980.19;;;37.25;37.08
57600;BME280;43426;43.594;24.334;2023-07-13T07:58:06;100972.91;;;37.24;37.66
57600;BME280;43426;43.594;24.334;2023-07-13T08:00:41;100978.25;;;37.50;37.77
57600;BME280;43426;43.594;24.334;2023-07-13T08:03:06;100968.50;;;37.47;36.21
57600;BME280;43426;43.594;24.334;2023-07-13T08:05:39;100971.91;;;37.53;37.07
57600;BME280;43426;43.594;24.334;2023-07-13T08:08:04;100985.00;;;37.82;36.09
57600;BME280;43426;43.594;24.334;2023-07-13T08:10:38;100983.13;;;37.87;37.71
57600;BME280;43426;43.594;24.334;2023-07-13T08:13:08;100962.00;;;38.05;36.73
57600;BME280;43426;43.594;24.334;2023-07-13T08:15:37;100960.56;;;38.11;34.29
57600;BME280;43426;43.594;24.334;2023-07-13T08:18:05;100974.88;;;38.19;35.64
57600;BME280;43426;43.594;24.334;2023-07-13T08:20:39;100979.59;;;38.27;35.78
57600;BME280;43426;43.594;24.334;2023-07-13T08:23:08;100972.63;;;38.37;34.41
57600;BME280;43426;43.594;24.334;2023-07-13T08:25:36;100973.84;;;38.36;35.02
57600;BME280;43426;43.594;24.334;2023-07-13T08:28:04;100973.31;;;38.46;33.99
57600;BME280;43426;43.594;24.334;2023-07-13T08:30:36;100997.97;;;38.49;33.25
57600;BME280;43426;43.594;24.334;2023-07-13T08:33:06;100989.19;;;38.38;33.14
57600;BME280;43426;43.594;24.334;2023-07-13T08:35:42;100990.28;;;38.33;34.49
57600;BME280;43426;43.594;24.334;2023-07-13T08:38:12;100986.47;;;38.54;33.34
57600;BME280;43426;43.594;24.334;2023-07-13T08:40:41;100999.28;;;38.92;34.58
57600;BME280;43426;43.594;24.334;2023-07-13T08:43:13;100983.03;;;39.30;32.82
57600;BME280;43426;43.594;24.334;2023-07-13T08:45:46;100987.25;;;39.68;28.99
57600;BME280;43426;43.594;24.334;2023-07-13T08:48:21;101002.47;;;39.79;30.40
57600;BME280;43426;43.594;24.334;2023-07-13T08:50:58;100975.78;;;39.77;30.18
57600;BME280;43426;43.594;24.334;2023-07-13T08:53:34;100987.88;;;39.77;27.90
57600;BME280;43426;43.594;24.334;2023-07-13T08:56:02;100997.66;;;39.80;29.26
57600;BME280;43426;43.594;24.334;2023-07-13T08:58:28;100977.78;;;39.76;30.00
57600;BME280;43426;43.594;24.334;2023-07-13T09:00:58;100995.88;;;40.23;29.35
57600;BME280;43426;43.594;24.334;2023-07-13T09:03:46;100982.78;;;40.34;28.31
57600;BME280;43426;43.594;24.334;2023-07-13T09:06:16;100980.03;;;40.18;28.21
57600;BME280;43426;43.594;24.334;2023-07-13T09:11:45;100993.94;;;40.63;28.70
57600;BME280;43426;43.594;24.334;2023-07-13T09:15:06;100995.41;;;40.57;26.58
57600;BME280;43426;43.594;24.334;2023-07-13T09:17:33;100966.66;;;40.35;27.54
57600;BME280;43426;43.594;24.334;2023-07-13T09:22:55;100996.31;;;41.00;25.55
57600;BME280;43426;43.594;24.334;2023-07-13T09:27:53;101003.56;;;40.42;25.36
57600;BME280;43426;43.594;24.334;2023-07-13T09:30:33;100974.97;;;40.47;26.40
57600;BME280;43426;43.594;24.334;2023-07-13T09:32:59;100974.72;;;40.72;26.02
57600;BME280;43426;43.594;24.334;2023-07-13T09:35:31;100979.19;;;40.73;23.73
57600;BME280;43426;43.594;24.334;2023-07-13T09:38:03;100997.44;;;40.40;25.69
57600;BME280;43426;43.594;24.334;2023-07-13T09:43:33;101003.09;;;40.56;25.49
57600;BME280;43426;43.594;24.334;2023-07-13T09:46:01;100973.66;;;40.41;25.75
57600;BME280;43426;43.594;24.334;2023-07-13T09:48:34;101000.38;;;40.44;25.50
57600;BME280;43426;43.594;24.334;2023-07-13T09:51:15;101002.44;;;40.47;25.78
57600;BME280;43426;43.594;24.334;2023-07-13T09:53:42;100994.59;;;40.56;26.20
57600;BME280;43426;43.594;24.334;2023-07-13T09:56:28;100999.66;;;40.66;25.90
57600;BME280;43426;43.594;24.334;2023-07-13T09:59:02;101001.22;;;40.64;26.25
57600;BME280;43426;43.594;24.334;2023-07-13T10:01:32;101004.81;;;40.80;25.16
57600;BME280;43426;43.594;24.334;2023-07-13T10:03:59;100983.97;;;40.69;25.28
57600;BME280;43426;43.594;24.334;2023-07-13T10:06:24;100982.63;;;40.82;25.44
57600;BME280;43426;43.594;24.334;2023-07-13T10:08:58;100945.59;;;40.91;24.85
57600;BME280;43426;43.594;24.334;2023-07-13T10:11:29;100964.84;;;41.01;24.73
57600;BME280;43426;43.594;24.334;2023-07-13T10:14:00;100965.41;;;40.91;23.89
57600;BME280;43426;43.594;24.334;2023-07-13T10:16:35;100958.63;;;40.76;24.99
57600;BME280;43426;43.594;24.334;2023-07-13T10:19:31;100964.09;;;41.05;23.99
57600;BME280;43426;43.594;24.334;2023-07-13T10:24:39;100937.75;;;41.24;25.05
57600;BME280;43426;43.594;24.334;2023-07-13T10:27:35;100925.22;;;41.48;24.46
57600;BME280;43426;43.594;24.334;2023-07-13T10:32:40;100932.84;;;41.94;24.08
57600;BME280;43426;43.594;24.334;2023-07-13T10:35:15;100953.00;;;42.15;23.35
57600;BME280;43426;43.594;24.334;2023-07-13T10:38:06;100944.19;;;42.21;24.14
57600;BME280;43426;43.594;24.334;2023-07-13T10:41:01;100931.78;;;42.32;23.25
57600;BME280;43426;43.594;24.334;2023-07-13T10:43:32;100920.28;;;42.22;21.22
57600;BME280;43426;43.594;24.334;2023-07-13T10:46:04;100926.56;;;42.08;22.04
57600;BME280;43426;43.594;24.334;2023-07-13T10:48:34;100909.13;;;42.06;22.20
57600;BME280;43426;43.594;24.334;2023-07-13T10:51:06;100922.34;;;42.25;23.13
57600;BME280;43426;43.594;24.334;2023-07-13T10:53:36;100908.63;;;42.27;23.57
57600;BME280;43426;43.594;24.334;2023-07-13T10:56:28;100905.19;;;42.14;22.93
57600;BME280;43426;43.594;24.334;2023-07-13T10:59:17;100906.78;;;42.11;23.01
57600;BME280;43426;43.594;24.334;2023-07-13T11:04:14;100895.81;;;42.40;23.56
57600;BME280;43426;43.594;24.334;2023-07-13T11:06:41;100887.28;;;42.70;21.18
57600;BME280;43426;43.594;24.334;2023-07-13T11:09:33;100893.75;;;42.71;20.28
57600;BME280;43426;43.594;24.334;2023-07-13T11:12:07;100874.47;;;42.19;21.45
57600;BME280;43426;43.594;24.334;2023-07-13T11:14:42;100870.19;;;42.02;20.93
57600;BME280;43426;43.594;24.334;2023-07-13T11:19:52;100875.03;;;42.02;21.18
57600;BME280;43426;43.594;24.334;2023-07-13T11:22:25;100837.63;;;41.89;20.74
57600;BME280;43426;43.594;24.334;2023-07-13T11:25:31;100868.56;;;42.32;20.26
57600;BME280;43426;43.594;24.334;2023-07-13T11:30:38;100870.69;;;42.39;19.54
57600;BME280;43426;43.594;24.334;2023-07-13T11:36:06;100853.97;;;42.67;20.27
57600;BME280;43426;43.594;24.334;2023-07-13T11:41:03;100864.09;;;42.31;20.00
57600;BME280;43426;43.594;24.334;2023-07-13T11:43:29;100868.97;;;42.30;19.47
57600;BME280;43426;43.594;24.334;2023-07-13T11:45:55;100852.06;;;42.41;18.50
57600;BME280;43426;43.594;24.334;2023-07-13T11:48:30;100851.59;;;42.73;19.78
57600;BME280;43426;43.594;24.334;2023-07-13T11:50:59;100856.59;;;42.87;18.54
57600;BME280;43426;43.594;24.334;2023-07-13T11:53:38;100831.50;;;42.89;19.23
57600;BME280;43426;43.594;24.334;2023-07-13T11:56:07;100855.38;;;43.29;18.82
57600;BME280;43426;43.594;24.334;2023-07-13T11:58:35;100835.09;;;43.31;17.89
57600;BME280;43426;43.594;24.334;2023-07-13T12:01:03;100839.00;;;43.08;18.38
57600;BME280;43426;43.594;24.334;2023-07-13T12:03:37;100823.78;;;42.86;18.73
57600;BME280;43426;43.594;24.334;2023-07-13T12:06:23;100839.03;;;43.15;18.88
57600;BME280;43426;43.594;24.334;2023-07-13T12:08:50;100832.25;;;43.31;19.70
57600;BME280;43426;43.594;24.334;2023-07-13T12:11:17;100845.09;;;43.66;18.89
57600;BME280;43426;43.594;24.334;2023-07-13T12:13:44;100829.69;;;43.67;18.72
57600;BME280;43426;43.594;24.334;2023-07-13T12:20:30;100839.44;;;43.14;18.51
57600;BME280;43426;43.594;24.334;2023-07-13T12:22:58;100822.38;;;43.10;18.98
57600;BME280;43426;43.594;24.334;2023-07-13T12:25:24;100812.88;;;42.95;19.57
57600;BME280;43426;43.594;24.334;2023-07-13T12:27:51;100807.75;;;43.08;18.38
57600;BME280;43426;43.594;24.334;2023-07-13T12:30:32;100811.31;;;43.01;18.74
57600;BME280;43426;43.594;24.334;2023-07-13T12:33:06;100827.81;;;43.33;18.51
57600;BME280;43426;43.594;24.334;2023-07-13T12:35:39;100826.13;;;43.25;18.68
57600;BME280;43426;43.594;24.334;2023-07-13T12:38:08;100805.75;;;43.12;18.31
57600;BME280;43426;43.594;24.334;2023-07-13T12:40:35;100824.13;;;43.29;19.64
57600;BME280;43426;43.594;24.334;2023-07-13T12:43:03;100819.44;;;43.51;17.71
57600;BME280;43426;43.594;24.334;2023-07-13T12:45:32;100816.63;;;43.59;18.52
57600;BME280;43426;43.594;24.334;2023-07-13T12:48:04;100812.34;;;43.24;18.47
57600;BME280;43426;43.594;24.334;2023-07-13T12:50:41;100798.09;;;43.16;19.18
57600;BME280;43426;43.594;24.334;2023-07-13T12:53:28;100805.91;;;43.34;19.02
57600;BME280;43426;43.594;24.334;2023-07-13T12:55:58;100792.97;;;43.40;20.18
57600;BME280;43426;43.594;24.334;2023-07-13T12:58:40;100816.34;;;43.82;17.80
57600;BME280;43426;43.594;24.334;2023-07-13T13:01:11;100774.47;;;43.68;18.29
57600;BME280;43426;43.594;24.334;2023-07-13T13:03:40;100789.66;;;43.94;18.74
57600;BME280;43426;43.594;24.334;2023-07-13T13:08:40;100805.44;;;43.87;18.82
57600;BME280;43426;43.594;24.334;2023-07-13T13:11:08;100788.19;;;43.51;17.48
57600;BME280;43426;43.594;24.334;2023-07-13T13:13:34;100787.34;;;43.47;18.70
57600;BME280;43426;43.594;24.334;2023-07-13T13:16:13;100795.91;;;43.54;18.03
57600;BME280;43426;43.594;24.334;2023-07-13T13:18:40;100788.22;;;43.55;19.03
57600;BME280;43426;43.594;24.334;2023-07-13T13:21:06;100764.56;;;43.40;19.25
57600;BME280;43426;43.594;24.334;2023-07-13T13:23:32;100776.66;;;43.26;18.38
57600;BME280;43426;43.594;24.334;2023-07-13T13:25:57;100784.97;;;42.60;19.81
57600;BME280;43426;43.594;24.334;2023-07-13T13:28:24;100781.28;;;42.56;19.53
57600;BME280;43426;43.594;24.334;2023-07-13T13:30:51;100785.19;;;42.81;19.19